CheckWX is a tool to help pilots better visualize weather data.  It is not intended as a substitute for an official pre-flight weather briefing.

14:49:45 UTC

KAXX METAR
Angel Fire Airport
Angel Fire, New Mexico, USA
Current

35 mins ago

KAXX 261415Z AUTO 18008KT 10SM 07/04 A3033 RMK AO2 T00740035
Observed
Apr-26 @ 14:15 UTC
Wind
  • 180° at 8 KTS
Visibility
10 SM
Temperature
C / 45°F
Dewpoint
C / 39°F
Humidity
81%
Altimeter
30.33" Hg
Pressure
1027.12 hPa
Previous

55 mins ago

KAXX 261355Z AUTO 18010KT 10SM 07/03 A3033 RMK AO2 T00700033
Observed
Apr-26 @ 13:55 UTC
Wind
  • 180° at 10 KTS
Visibility
10 SM
Temperature
C / 45°F
Dewpoint
C / 37°F
Humidity
76%
Altimeter
30.33" Hg
Pressure
1027.12 hPa
Previous

1 hour ago

KAXX 261335Z AUTO 18010KT 10SM 07/03 A3034 RMK AO2 T00650032
Observed
Apr-26 @ 13:35 UTC
Wind
  • 180° at 10 KTS
Visibility
10 SM
Temperature
C / 45°F
Dewpoint
C / 37°F
Humidity
76%
Altimeter
30.34" Hg
Pressure
1027.42 hPa